Aérodrome :
LOGIN :

S'inscrire | Disclaimer

   EN    FR    IT 

 










Légende :    VFR   VFR Marginal   IFR   IFR Intensif   IFR Très Intensif
Visi : 
Plafond : 
>= 8 km
>= 3000ft
5 à 8 km
1000 à 3000 ft
1500m à 5 km
500 à 1000 ft
800 à 1500m
200 à 500 ft
< 800m
< 200 ft
Symboles :   Orages  Brouillard  Fortes neiges  Fortes précipitations  Vent > 20 kt
SIGMETs :   Divers  Orages  Givrage  Turbulence  Onde Orograph.  Cendres Volcan.






- Altitude de l'aérodrome : 238 ft
- Code IATA : FAB


EGLF - Farnborough

DERNIER METAR :
  • 221350Z AUTO 21008KT 140V250 9999 FEW047/// 22/10 Q1011

METARs EXPIRÉS :
  • 221320Z AUTO 19007KT 110V230 9999 NCD 21/10 Q1012
  • 221250Z AUTO 16008KT 110V210 9999 NCD 22/11 Q1012
  • 221220Z AUTO VRB05KT 9999 NCD 21/10 Q1012
  • 221150Z AUTO VRB03KT 9999 NCD 20/10 Q1013
  • 221120Z AUTO VRB06KT 9999 FEW042/// 20/10 Q1013

TAF TAF EGLF
Valide du 22 à 12h jusqu'au 22 à 19h UTC


221058Z 2212/2219 20007KT CAVOK
PROB30
TEMPO 2217/2219 9000 -RA
ATIS : +44 09063 800 400 (*282)



MET'MAP, la Météo Aéronautique d'un coup d'oeil ! - Copyright ORBIFLY Décembre 2007 - Disclaimer

ORBIFLY MET'MAP TEAM :

Programmation & Développement : Alexandra Zaïnal
Sur une idée originale de : Baudouin d'Aumeries
Soutien technique & logistique : Manuel Goepfert
Assistance : Marc-Olivier Méhu

Contact : metmap@orbifly.com




SOURCES & CREDITS :

   NOAA